sensor_id;sensor_type;location;lat;lon;timestamp;P1;durP1;ratioP1;P2;durP2;ratioP2
24799;SDS011;12897;50.812;4.430;2024-01-30T00:04:52;9.05;;;4.08;;
24799;SDS011;12897;50.812;4.430;2024-01-30T00:07:10;6.45;;;3.33;;
24799;SDS011;12897;50.812;4.430;2024-01-30T00:09:39;7.37;;;3.53;;
24799;SDS011;12897;50.812;4.430;2024-01-30T00:12:11;8.35;;;3.42;;
24799;SDS011;12897;50.812;4.430;2024-01-30T00:14:37;7.25;;;3.65;;
24799;SDS011;12897;50.812;4.430;2024-01-30T00:17:08;7.08;;;3.52;;
24799;SDS011;12897;50.812;4.430;2024-01-30T00:19:39;4.42;;;3.22;;
24799;SDS011;12897;50.812;4.430;2024-01-30T00:22:14;7.53;;;3.73;;
24799;SDS011;12897;50.812;4.430;2024-01-30T00:24:48;7.30;;;3.60;;
24799;SDS011;12897;50.812;4.430;2024-01-30T00:27:20;5.42;;;3.27;;
24799;SDS011;12897;50.812;4.430;2024-01-30T00:29:56;7.08;;;3.58;;
24799;SDS011;12897;50.812;4.430;2024-01-30T00:32:22;5.87;;;3.60;;
24799;SDS011;12897;50.812;4.430;2024-01-30T00:35:06;6.97;;;3.67;;
24799;SDS011;12897;50.812;4.430;2024-01-30T00:37:31;7.35;;;3.77;;
24799;SDS011;12897;50.812;4.430;2024-01-30T00:40:18;6.40;;;3.12;;
24799;SDS011;12897;50.812;4.430;2024-01-30T00:42:37;9.50;;;3.58;;
24799;SDS011;12897;50.812;4.430;2024-01-30T00:45:18;6.60;;;3.60;;
24799;SDS011;12897;50.812;4.430;2024-01-30T00:47:42;5.42;;;3.30;;
24799;SDS011;12897;50.812;4.430;2024-01-30T00:50:16;6.95;;;3.37;;
24799;SDS011;12897;50.812;4.430;2024-01-30T00:52:40;8.27;;;3.87;;
24799;SDS011;12897;50.812;4.430;2024-01-30T00:55:10;7.20;;;3.85;;
24799;SDS011;12897;50.812;4.430;2024-01-30T00:57:39;8.68;;;3.55;;
24799;SDS011;12897;50.812;4.430;2024-01-30T01:00:14;7.95;;;3.58;;
24799;SDS011;12897;50.812;4.430;2024-01-30T01:02:40;8.03;;;3.80;;
24799;SDS011;12897;50.812;4.430;2024-01-30T01:05:10;6.90;;;3.87;;
24799;SDS011;12897;50.812;4.430;2024-01-30T01:07:42;12.35;;;3.15;;
24799;SDS011;12897;50.812;4.430;2024-01-30T01:10:13;5.08;;;3.20;;
24799;SDS011;12897;50.812;4.430;2024-01-30T01:12:44;8.00;;;3.67;;
24799;SDS011;12897;50.812;4.430;2024-01-30T01:15:15;6.53;;;4.10;;
24799;SDS011;12897;50.812;4.430;2024-01-30T01:17:44;6.62;;;3.35;;
24799;SDS011;12897;50.812;4.430;2024-01-30T01:20:12;7.42;;;3.65;;
24799;SDS011;12897;50.812;4.430;2024-01-30T01:25:10;7.92;;;3.58;;
24799;SDS011;12897;50.812;4.430;2024-01-30T01:27:40;6.12;;;2.95;;
24799;SDS011;12897;50.812;4.430;2024-01-30T01:30:14;6.37;;;3.33;;
24799;SDS011;12897;50.812;4.430;2024-01-30T01:32:47;6.97;;;3.52;;
24799;SDS011;12897;50.812;4.430;2024-01-30T01:35:14;6.70;;;3.42;;
24799;SDS011;12897;50.812;4.430;2024-01-30T01:37:43;5.83;;;3.50;;
24799;SDS011;12897;50.812;4.430;2024-01-30T01:40:13;5.33;;;3.30;;
24799;SDS011;12897;50.812;4.430;2024-01-30T01:42:44;5.25;;;3.02;;
24799;SDS011;12897;50.812;4.430;2024-01-30T01:45:18;6.42;;;3.75;;
24799;SDS011;12897;50.812;4.430;2024-01-30T01:47:46;4.05;;;2.92;;
24799;SDS011;12897;50.812;4.430;2024-01-30T01:50:18;7.33;;;3.42;;
24799;SDS011;12897;50.812;4.430;2024-01-30T01:52:49;6.50;;;3.65;;
24799;SDS011;12897;50.812;4.430;2024-01-30T01:55:23;7.90;;;3.70;;
24799;SDS011;12897;50.812;4.430;2024-01-30T01:58:11;9.60;;;3.25;;
24799;SDS011;12897;50.812;4.430;2024-01-30T02:00:37;8.78;;;3.35;;
24799;SDS011;12897;50.812;4.430;2024-01-30T02:05:34;5.20;;;3.30;;
24799;SDS011;12897;50.812;4.430;2024-01-30T02:08:07;6.22;;;3.12;;
24799;SDS011;12897;50.812;4.430;2024-01-30T02:10:48;6.05;;;3.10;;
24799;SDS011;12897;50.812;4.430;2024-01-30T02:13:06;5.28;;;2.92;;
24799;SDS011;12897;50.812;4.430;2024-01-30T02:15:38;6.03;;;3.17;;
24799;SDS011;12897;50.812;4.430;2024-01-30T02:18:06;10.48;;;3.52;;
24799;SDS011;12897;50.812;4.430;2024-01-30T02:20:35;8.60;;;3.67;;
24799;SDS011;12897;50.812;4.430;2024-01-30T02:23:12;5.22;;;3.10;;
24799;SDS011;12897;50.812;4.430;2024-01-30T02:25:48;4.75;;;3.10;;
24799;SDS011;12897;50.812;4.430;2024-01-30T02:28:21;6.42;;;3.27;;
24799;SDS011;12897;50.812;4.430;2024-01-30T02:30:48;7.45;;;3.08;;
24799;SDS011;12897;50.812;4.430;2024-01-30T02:33:22;7.33;;;3.25;;
24799;SDS011;12897;50.812;4.430;2024-01-30T02:35:55;4.78;;;2.95;;
24799;SDS011;12897;50.812;4.430;2024-01-30T02:40:49;6.05;;;3.00;;
24799;SDS011;12897;50.812;4.430;2024-01-30T02:43:19;7.28;;;3.45;;
24799;SDS011;12897;50.812;4.430;2024-01-30T02:45:48;5.00;;;2.83;;
24799;SDS011;12897;50.812;4.430;2024-01-30T02:48:15;6.53;;;2.85;;
24799;SDS011;12897;50.812;4.430;2024-01-30T02:50:44;7.80;;;3.50;;
24799;SDS011;12897;50.812;4.430;2024-01-30T02:53:13;6.70;;;3.40;;
24799;SDS011;12897;50.812;4.430;2024-01-30T02:55:40;4.35;;;2.62;;
24799;SDS011;12897;50.812;4.430;2024-01-30T02:58:27;8.50;;;3.02;;
24799;SDS011;12897;50.812;4.430;2024-01-30T03:00:49;8.00;;;3.37;;
24799;SDS011;12897;50.812;4.430;2024-01-30T03:03:18;4.83;;;3.03;;
24799;SDS011;12897;50.812;4.430;2024-01-30T03:05:48;6.60;;;3.33;;
24799;SDS011;12897;50.812;4.430;2024-01-30T03:08:19;7.15;;;3.40;;
24799;SDS011;12897;50.812;4.430;2024-01-30T03:10:45;6.23;;;2.83;;
24799;SDS011;12897;50.812;4.430;2024-01-30T03:13:19;8.80;;;3.60;;
24799;SDS011;12897;50.812;4.430;2024-01-30T03:15:49;5.87;;;3.10;;
24799;SDS011;12897;50.812;4.430;2024-01-30T03:18:20;6.20;;;3.37;;
24799;SDS011;12897;50.812;4.430;2024-01-30T03:20:53;6.62;;;3.00;;
24799;SDS011;12897;50.812;4.430;2024-01-30T03:23:22;7.15;;;3.58;;
24799;SDS011;12897;50.812;4.430;2024-01-30T03:25:55;5.80;;;2.80;;
24799;SDS011;12897;50.812;4.430;2024-01-30T03:28:41;4.83;;;2.80;;
24799;SDS011;12897;50.812;4.430;2024-01-30T03:30:57;8.65;;;3.52;;
24799;SDS011;12897;50.812;4.430;2024-01-30T03:33:26;7.20;;;2.77;;
24799;SDS011;12897;50.812;4.430;2024-01-30T03:35:57;6.20;;;2.92;;
24799;SDS011;12897;50.812;4.430;2024-01-30T03:38:28;6.03;;;3.45;;
24799;SDS011;12897;50.812;4.430;2024-01-30T03:43:34;5.62;;;2.95;;
24799;SDS011;12897;50.812;4.430;2024-01-30T03:46:08;7.05;;;3.10;;
24799;SDS011;12897;50.812;4.430;2024-01-30T03:48:42;5.62;;;3.35;;
24799;SDS011;12897;50.812;4.430;2024-01-30T03:51:11;5.35;;;3.17;;
24799;SDS011;12897;50.812;4.430;2024-01-30T03:58:42;7.08;;;3.67;;
24799;SDS011;12897;50.812;4.430;2024-01-30T04:03:44;8.00;;;3.70;;
24799;SDS011;12897;50.812;4.430;2024-01-30T04:06:18;4.20;;;2.80;;
24799;SDS011;12897;50.812;4.430;2024-01-30T04:08:51;6.35;;;3.27;;
24799;SDS011;12897;50.812;4.430;2024-01-30T04:11:20;6.67;;;3.40;;
24799;SDS011;12897;50.812;4.430;2024-01-30T04:13:53;6.77;;;3.27;;
24799;SDS011;12897;50.812;4.430;2024-01-30T04:16:21;10.93;;;3.05;;
24799;SDS011;12897;50.812;4.430;2024-01-30T04:19:07;5.75;;;3.42;;
24799;SDS011;12897;50.812;4.430;2024-01-30T04:21:36;7.62;;;3.22;;
24799;SDS011;12897;50.812;4.430;2024-01-30T04:24:11;6.37;;;3.70;;
24799;SDS011;12897;50.812;4.430;2024-01-30T04:26:41;6.70;;;3.65;;
24799;SDS011;12897;50.812;4.430;2024-01-30T04:29:24;4.27;;;3.10;;
24799;SDS011;12897;50.812;4.430;2024-01-30T04:32:06;5.10;;;2.80;;
24799;SDS011;12897;50.812;4.430;2024-01-30T04:34:18;7.08;;;3.62;;
24799;SDS011;12897;50.812;4.430;2024-01-30T04:36:52;5.33;;;2.60;;
24799;SDS011;12897;50.812;4.430;2024-01-30T04:39:23;6.47;;;3.70;;
24799;SDS011;12897;50.812;4.430;2024-01-30T04:41:47;6.53;;;3.27;;
24799;SDS011;12897;50.812;4.430;2024-01-30T04:44:15;5.87;;;3.10;;
24799;SDS011;12897;50.812;4.430;2024-01-30T04:46:47;6.47;;;3.52;;
24799;SDS011;12897;50.812;4.430;2024-01-30T04:49:18;8.08;;;3.62;;
24799;SDS011;12897;50.812;4.430;2024-01-30T04:51:54;5.47;;;3.27;;
24799;SDS011;12897;50.812;4.430;2024-01-30T04:54:20;6.58;;;3.60;;
24799;SDS011;12897;50.812;4.430;2024-01-30T04:59:28;7.78;;;3.75;;
24799;SDS011;12897;50.812;4.430;2024-01-30T05:01:56;8.38;;;4.03;;
24799;SDS011;12897;50.812;4.430;2024-01-30T05:04:26;8.40;;;3.55;;
24799;SDS011;12897;50.812;4.430;2024-01-30T05:06:56;8.08;;;3.20;;
24799;SDS011;12897;50.812;4.430;2024-01-30T05:09:24;6.28;;;3.42;;
24799;SDS011;12897;50.812;4.430;2024-01-30T05:11:55;7.70;;;3.37;;
24799;SDS011;12897;50.812;4.430;2024-01-30T05:14:24;4.65;;;3.45;;
24799;SDS011;12897;50.812;4.430;2024-01-30T05:17:00;5.75;;;3.72;;
24799;SDS011;12897;50.812;4.430;2024-01-30T05:22:03;7.33;;;3.58;;
24799;SDS011;12897;50.812;4.430;2024-01-30T05:24:37;9.08;;;3.22;;
24799;SDS011;12897;50.812;4.430;2024-01-30T05:27:07;8.55;;;3.58;;
24799;SDS011;12897;50.812;4.430;2024-01-30T05:29:39;5.28;;;3.40;;
24799;SDS011;12897;50.812;4.430;2024-01-30T05:32:10;7.15;;;3.05;;
24799;SDS011;12897;50.812;4.430;2024-01-30T05:34:41;8.80;;;4.05;;
24799;SDS011;12897;50.812;4.430;2024-01-30T05:37:10;6.80;;;4.07;;
24799;SDS011;12897;50.812;4.430;2024-01-30T05:39:48;7.28;;;3.58;;
24799;SDS011;12897;50.812;4.430;2024-01-30T05:42:14;7.67;;;4.00;;
24799;SDS011;12897;50.812;4.430;2024-01-30T05:44:50;10.15;;;3.67;;
24799;SDS011;12897;50.812;4.430;2024-01-30T05:47:19;8.30;;;4.20;;
24799;SDS011;12897;50.812;4.430;2024-01-30T05:49:49;6.45;;;3.72;;
24799;SDS011;12897;50.812;4.430;2024-01-30T05:52:16;8.20;;;3.55;;
24799;SDS011;12897;50.812;4.430;2024-01-30T05:54:49;6.37;;;3.42;;
24799;SDS011;12897;50.812;4.430;2024-01-30T05:57:18;7.50;;;4.05;;
24799;SDS011;12897;50.812;4.430;2024-01-30T05:59:47;6.17;;;3.57;;
24799;SDS011;12897;50.812;4.430;2024-01-30T06:02:14;5.70;;;3.42;;
24799;SDS011;12897;50.812;4.430;2024-01-30T06:04:43;7.58;;;3.70;;
24799;SDS011;12897;50.812;4.430;2024-01-30T06:07:10;13.53;;;4.83;;
24799;SDS011;12897;50.812;4.430;2024-01-30T06:09:38;8.48;;;3.77;;
24799;SDS011;12897;50.812;4.430;2024-01-30T06:12:06;7.08;;;3.60;;
24799;SDS011;12897;50.812;4.430;2024-01-30T06:14:36;12.88;;;4.20;;
24799;SDS011;12897;50.812;4.430;2024-01-30T06:17:04;9.60;;;3.85;;
24799;SDS011;12897;50.812;4.430;2024-01-30T06:19:32;8.13;;;3.87;;
24799;SDS011;12897;50.812;4.430;2024-01-30T06:21:59;8.73;;;3.77;;
24799;SDS011;12897;50.812;4.430;2024-01-30T06:24:30;6.45;;;3.42;;
24799;SDS011;12897;50.812;4.430;2024-01-30T06:26:59;8.38;;;3.65;;
24799;SDS011;12897;50.812;4.430;2024-01-30T06:29:27;8.80;;;3.75;;
24799;SDS011;12897;50.812;4.430;2024-01-30T06:31:54;6.78;;;3.77;;
24799;SDS011;12897;50.812;4.430;2024-01-30T06:34:23;9.43;;;4.00;;
24799;SDS011;12897;50.812;4.430;2024-01-30T06:36:52;18.73;;;7.35;;
24799;SDS011;12897;50.812;4.430;2024-01-30T06:39:19;12.95;;;5.15;;
24799;SDS011;12897;50.812;4.430;2024-01-30T06:41:48;6.55;;;3.62;;
24799;SDS011;12897;50.812;4.430;2024-01-30T06:44:16;6.60;;;4.10;;
24799;SDS011;12897;50.812;4.430;2024-01-30T06:46:43;6.47;;;3.90;;
24799;SDS011;12897;50.812;4.430;2024-01-30T06:49:11;12.43;;;4.05;;
24799;SDS011;12897;50.812;4.430;2024-01-30T06:51:38;13.85;;;4.67;;
24799;SDS011;12897;50.812;4.430;2024-01-30T06:54:06;6.42;;;3.70;;
24799;SDS011;12897;50.812;4.430;2024-01-30T06:56:34;9.10;;;4.10;;
24799;SDS011;12897;50.812;4.430;2024-01-30T06:59:01;9.43;;;4.30;;
24799;SDS011;12897;50.812;4.430;2024-01-30T07:01:29;8.95;;;4.05;;
24799;SDS011;12897;50.812;4.430;2024-01-30T07:03:57;10.63;;;4.00;;
24799;SDS011;12897;50.812;4.430;2024-01-30T07:06:24;9.05;;;3.60;;
24799;SDS011;12897;50.812;4.430;2024-01-30T07:08:52;8.68;;;4.15;;
24799;SDS011;12897;50.812;4.430;2024-01-30T07:11:20;9.98;;;4.45;;
24799;SDS011;12897;50.812;4.430;2024-01-30T07:13:52;7.62;;;3.65;;
24799;SDS011;12897;50.812;4.430;2024-01-30T07:16:21;7.35;;;4.20;;
24799;SDS011;12897;50.812;4.430;2024-01-30T07:18:49;10.23;;;4.50;;
24799;SDS011;12897;50.812;4.430;2024-01-30T07:21:16;11.12;;;4.70;;
24799;SDS011;12897;50.812;4.430;2024-01-30T07:23:44;8.93;;;4.17;;
24799;SDS011;12897;50.812;4.430;2024-01-30T07:26:11;7.25;;;3.90;;
24799;SDS011;12897;50.812;4.430;2024-01-30T07:28:41;9.28;;;3.80;;
24799;SDS011;12897;50.812;4.430;2024-01-30T07:31:09;7.17;;;4.20;;
24799;SDS011;12897;50.812;4.430;2024-01-30T07:33:38;11.88;;;5.25;;
24799;SDS011;12897;50.812;4.430;2024-01-30T07:36:06;4.87;;;3.47;;
24799;SDS011;12897;50.812;4.430;2024-01-30T07:38:36;10.38;;;4.30;;
24799;SDS011;12897;50.812;4.430;2024-01-30T07:41:03;11.18;;;4.45;;
24799;SDS011;12897;50.812;4.430;2024-01-30T07:43:31;6.80;;;3.92;;
24799;SDS011;12897;50.812;4.430;2024-01-30T07:46:02;13.90;;;4.20;;
24799;SDS011;12897;50.812;4.430;2024-01-30T07:48:29;10.60;;;4.05;;
24799;SDS011;12897;50.812;4.430;2024-01-30T07:51:03;8.68;;;4.35;;
24799;SDS011;12897;50.812;4.430;2024-01-30T07:53:29;15.05;;;4.47;;
24799;SDS011;12897;50.812;4.430;2024-01-30T07:55:58;9.07;;;4.30;;
24799;SDS011;12897;50.812;4.430;2024-01-30T07:58:28;10.00;;;4.20;;
24799;SDS011;12897;50.812;4.430;2024-01-30T08:00:55;12.63;;;4.62;;
24799;SDS011;12897;50.812;4.430;2024-01-30T08:03:24;14.65;;;4.33;;
24799;SDS011;12897;50.812;4.430;2024-01-30T08:05:51;10.90;;;3.72;;
24799;SDS011;12897;50.812;4.430;2024-01-30T08:08:19;7.85;;;3.87;;
24799;SDS011;12897;50.812;4.430;2024-01-30T08:10:46;11.15;;;4.50;;
24799;SDS011;12897;50.812;4.430;2024-01-30T08:13:15;9.45;;;3.92;;
24799;SDS011;12897;50.812;4.430;2024-01-30T08:15:43;10.10;;;4.37;;
24799;SDS011;12897;50.812;4.430;2024-01-30T08:18:10;7.92;;;4.22;;
24799;SDS011;12897;50.812;4.430;2024-01-30T08:20:40;9.00;;;4.50;;
24799;SDS011;12897;50.812;4.430;2024-01-30T08:23:07;7.90;;;4.25;;
24799;SDS011;12897;50.812;4.430;2024-01-30T08:25:36;8.50;;;4.20;;
24799;SDS011;12897;50.812;4.430;2024-01-30T08:28:04;8.45;;;4.40;;
24799;SDS011;12897;50.812;4.430;2024-01-30T08:30:33;9.43;;;4.80;;
24799;SDS011;12897;50.812;4.430;2024-01-30T08:33:01;8.85;;;4.60;;
24799;SDS011;12897;50.812;4.430;2024-01-30T08:35:29;8.85;;;4.03;;
24799;SDS011;12897;50.812;4.430;2024-01-30T08:37:58;9.77;;;3.90;;
24799;SDS011;12897;50.812;4.430;2024-01-30T08:40:26;9.28;;;4.37;;
24799;SDS011;12897;50.812;4.430;2024-01-30T08:42:55;13.05;;;4.70;;
24799;SDS011;12897;50.812;4.430;2024-01-30T08:45:23;8.80;;;4.83;;
24799;SDS011;12897;50.812;4.430;2024-01-30T08:47:50;10.03;;;4.65;;
24799;SDS011;12897;50.812;4.430;2024-01-30T08:50:18;10.58;;;4.55;;
24799;SDS011;12897;50.812;4.430;2024-01-30T08:52:45;10.08;;;4.90;;
24799;SDS011;12897;50.812;4.430;2024-01-30T08:55:13;11.12;;;5.10;;
24799;SDS011;12897;50.812;4.430;2024-01-30T08:57:41;8.05;;;4.10;;
24799;SDS011;12897;50.812;4.430;2024-01-30T09:00:08;8.30;;;4.03;;
24799;SDS011;12897;50.812;4.430;2024-01-30T09:02:37;9.63;;;4.40;;
24799;SDS011;12897;50.812;4.430;2024-01-30T09:05:04;11.03;;;4.37;;
24799;SDS011;12897;50.812;4.430;2024-01-30T09:07:33;13.22;;;4.40;;
24799;SDS011;12897;50.812;4.430;2024-01-30T09:10:06;14.00;;;4.42;;
24799;SDS011;12897;50.812;4.430;2024-01-30T09:12:31;8.05;;;4.15;;
24799;SDS011;12897;50.812;4.430;2024-01-30T09:14:59;10.10;;;4.22;;
24799;SDS011;12897;50.812;4.430;2024-01-30T09:17:34;10.28;;;4.42;;
24799;SDS011;12897;50.812;4.430;2024-01-30T09:20:00;12.15;;;4.92;;
24799;SDS011;12897;50.812;4.430;2024-01-30T09:22:29;11.15;;;4.55;;
24799;SDS011;12897;50.812;4.430;2024-01-30T09:24:57;10.28;;;4.67;;
24799;SDS011;12897;50.812;4.430;2024-01-30T09:27:26;12.18;;;5.00;;
24799;SDS011;12897;50.812;4.430;2024-01-30T09:29:54;11.78;;;4.75;;
24799;SDS011;12897;50.812;4.430;2024-01-30T09:32:21;11.53;;;4.53;;
24799;SDS011;12897;50.812;4.430;2024-01-30T09:34:49;15.20;;;4.62;;
24799;SDS011;12897;50.812;4.430;2024-01-30T09:37:17;11.45;;;4.67;;
24799;SDS011;12897;50.812;4.430;2024-01-30T09:39:44;10.70;;;4.75;;
24799;SDS011;12897;50.812;4.430;2024-01-30T09:42:34;12.00;;;5.10;;
24799;SDS011;12897;50.812;4.430;2024-01-30T09:44:46;8.68;;;4.37;;
24799;SDS011;12897;50.812;4.430;2024-01-30T09:47:15;13.32;;;4.83;;
24799;SDS011;12897;50.812;4.430;2024-01-30T09:49:44;10.65;;;4.87;;
24799;SDS011;12897;50.812;4.430;2024-01-30T09:52:13;12.75;;;5.12;;
24799;SDS011;12897;50.812;4.430;2024-01-30T09:54:42;11.97;;;5.83;;
24799;SDS011;12897;50.812;4.430;2024-01-30T09:57:14;15.78;;;6.40;;
24799;SDS011;12897;50.812;4.430;2024-01-30T09:59:42;15.95;;;5.42;;
24799;SDS011;12897;50.812;4.430;2024-01-30T10:02:10;14.68;;;5.70;;
24799;SDS011;12897;50.812;4.430;2024-01-30T10:04:37;17.82;;;6.03;;
24799;SDS011;12897;50.812;4.430;2024-01-30T10:07:05;14.83;;;6.95;;
24799;SDS011;12897;50.812;4.430;2024-01-30T10:09:34;11.57;;;6.40;;
24799;SDS011;12897;50.812;4.430;2024-01-30T10:12:05;17.75;;;6.33;;
24799;SDS011;12897;50.812;4.430;2024-01-30T10:14:33;13.80;;;6.05;;
24799;SDS011;12897;50.812;4.430;2024-01-30T10:17:03;14.40;;;6.20;;
24799;SDS011;12897;50.812;4.430;2024-01-30T10:19:31;13.90;;;6.20;;
24799;SDS011;12897;50.812;4.430;2024-01-30T10:22:03;18.82;;;6.67;;
24799;SDS011;12897;50.812;4.430;2024-01-30T10:24:30;13.53;;;6.12;;
24799;SDS011;12897;50.812;4.430;2024-01-30T10:27:00;14.53;;;6.55;;
24799;SDS011;12897;50.812;4.430;2024-01-30T10:29:28;13.13;;;6.05;;
24799;SDS011;12897;50.812;4.430;2024-01-30T10:31:58;13.30;;;6.20;;
24799;SDS011;12897;50.812;4.430;2024-01-30T10:34:29;13.98;;;6.10;;
24799;SDS011;12897;50.812;4.430;2024-01-30T10:37:12;13.08;;;6.25;;
24799;SDS011;12897;50.812;4.430;2024-01-30T10:39:41;10.20;;;5.08;;
24799;SDS011;12897;50.812;4.430;2024-01-30T10:42:13;10.60;;;5.67;;
24799;SDS011;12897;50.812;4.430;2024-01-30T10:47:36;14.33;;;5.83;;
24799;SDS011;12897;50.812;4.430;2024-01-30T10:50:07;13.03;;;4.97;;
24799;SDS011;12897;50.812;4.430;2024-01-30T10:52:36;13.70;;;4.80;;
24799;SDS011;12897;50.812;4.430;2024-01-30T10:55:04;14.70;;;5.12;;
24799;SDS011;12897;50.812;4.430;2024-01-30T10:57:33;8.98;;;4.40;;
24799;SDS011;12897;50.812;4.430;2024-01-30T11:00:05;12.45;;;4.67;;
24799;SDS011;12897;50.812;4.430;2024-01-30T11:02:49;14.90;;;5.15;;
24799;SDS011;12897;50.812;4.430;2024-01-30T11:05:13;11.45;;;4.85;;
24799;SDS011;12897;50.812;4.430;2024-01-30T11:07:41;8.80;;;4.35;;
24799;SDS011;12897;50.812;4.430;2024-01-30T11:10:09;8.58;;;4.67;;
24799;SDS011;12897;50.812;4.430;2024-01-30T11:12:40;13.38;;;4.67;;
24799;SDS011;12897;50.812;4.430;2024-01-30T11:15:09;13.38;;;4.70;;
24799;SDS011;12897;50.812;4.430;2024-01-30T11:17:40;11.50;;;4.70;;
24799;SDS011;12897;50.812;4.430;2024-01-30T11:20:10;6.85;;;4.03;;
24799;SDS011;12897;50.812;4.430;2024-01-30T11:22:40;11.88;;;4.12;;
24799;SDS011;12897;50.812;4.430;2024-01-30T11:25:16;13.18;;;4.60;;
24799;SDS011;12897;50.812;4.430;2024-01-30T11:27:46;6.30;;;2.50;;
24799;SDS011;12897;50.812;4.430;2024-01-30T11:30:25;10.08;;;2.60;;
24799;SDS011;12897;50.812;4.430;2024-01-30T11:33:00;5.40;;;2.52;;
24799;SDS011;12897;50.812;4.430;2024-01-30T11:35:32;7.28;;;2.37;;
24799;SDS011;12897;50.812;4.430;2024-01-30T11:38:10;5.30;;;1.98;;
24799;SDS011;12897;50.812;4.430;2024-01-30T11:40:40;6.90;;;2.25;;
24799;SDS011;12897;50.812;4.430;2024-01-30T11:43:08;3.42;;;1.87;;
24799;SDS011;12897;50.812;4.430;2024-01-30T11:45:36;3.50;;;1.70;;
24799;SDS011;12897;50.812;4.430;2024-01-30T11:48:05;5.67;;;1.65;;
24799;SDS011;12897;50.812;4.430;2024-01-30T11:50:35;2.90;;;1.27;;
24799;SDS011;12897;50.812;4.430;2024-01-30T11:53:04;5.70;;;1.15;;
24799;SDS011;12897;50.812;4.430;2024-01-30T11:55:33;4.58;;;1.00;;
24799;SDS011;12897;50.812;4.430;2024-01-30T11:58:02;2.45;;;0.88;;
24799;SDS011;12897;50.812;4.430;2024-01-30T12:00:30;1.80;;;1.10;;
24799;SDS011;12897;50.812;4.430;2024-01-30T12:02:59;2.05;;;1.00;;
24799;SDS011;12897;50.812;4.430;2024-01-30T12:05:28;4.42;;;0.88;;
24799;SDS011;12897;50.812;4.430;2024-01-30T12:07:56;2.52;;;1.02;;
24799;SDS011;12897;50.812;4.430;2024-01-30T12:10:25;0.65;;;0.60;;
24799;SDS011;12897;50.812;4.430;2024-01-30T12:12:54;5.17;;;1.32;;
24799;SDS011;12897;50.812;4.430;2024-01-30T12:15:22;1.57;;;0.90;;
24799;SDS011;12897;50.812;4.430;2024-01-30T12:17:51;5.92;;;1.55;;
24799;SDS011;12897;50.812;4.430;2024-01-30T12:20:18;3.02;;;0.72;;
24799;SDS011;12897;50.812;4.430;2024-01-30T12:22:47;2.37;;;1.10;;
24799;SDS011;12897;50.812;4.430;2024-01-30T12:25:17;2.77;;;1.00;;
24799;SDS011;12897;50.812;4.430;2024-01-30T12:27:49;6.65;;;1.17;;
24799;SDS011;12897;50.812;4.430;2024-01-30T12:30:17;7.10;;;0.80;;
24799;SDS011;12897;50.812;4.430;2024-01-30T12:32:46;1.60;;;0.80;;
24799;SDS011;12897;50.812;4.430;2024-01-30T12:35:17;1.52;;;0.70;;
24799;SDS011;12897;50.812;4.430;2024-01-30T12:40:14;3.83;;;0.50;;
24799;SDS011;12897;50.812;4.430;2024-01-30T12:42:41;1.50;;;0.70;;
24799;SDS011;12897;50.812;4.430;2024-01-30T12:45:11;2.92;;;0.70;;
24799;SDS011;12897;50.812;4.430;2024-01-30T12:47:45;3.72;;;0.80;;
24799;SDS011;12897;50.812;4.430;2024-01-30T12:50:12;1.72;;;0.90;;
24799;SDS011;12897;50.812;4.430;2024-01-30T12:52:42;2.62;;;0.70;;
24799;SDS011;12897;50.812;4.430;2024-01-30T12:55:10;0.82;;;0.50;;
24799;SDS011;12897;50.812;4.430;2024-01-30T12:57:38;3.83;;;0.90;;
24799;SDS011;12897;50.812;4.430;2024-01-30T13:00:06;4.08;;;0.72;;
24799;SDS011;12897;50.812;4.430;2024-01-30T13:02:34;1.45;;;0.60;;
24799;SDS011;12897;50.812;4.430;2024-01-30T13:05:03;2.83;;;0.70;;
24799;SDS011;12897;50.812;4.430;2024-01-30T13:07:31;2.17;;;0.78;;
24799;SDS011;12897;50.812;4.430;2024-01-30T13:09:59;2.55;;;0.90;;
24799;SDS011;12897;50.812;4.430;2024-01-30T13:12:28;0.73;;;0.67;;
24799;SDS011;12897;50.812;4.430;2024-01-30T13:14:58;4.62;;;1.12;;
24799;SDS011;12897;50.812;4.430;2024-01-30T13:17:27;1.47;;;0.85;;
24799;SDS011;12897;50.812;4.430;2024-01-30T13:19:55;3.58;;;0.98;;
24799;SDS011;12897;50.812;4.430;2024-01-30T13:22:23;3.08;;;0.90;;
24799;SDS011;12897;50.812;4.430;2024-01-30T13:24:51;1.35;;;0.60;;
24799;SDS011;12897;50.812;4.430;2024-01-30T13:27:20;7.72;;;1.05;;
24799;SDS011;12897;50.812;4.430;2024-01-30T13:29:49;4.17;;;0.98;;
24799;SDS011;12897;50.812;4.430;2024-01-30T13:32:17;2.70;;;0.93;;
24799;SDS011;12897;50.812;4.430;2024-01-30T13:34:44;2.00;;;1.17;;
24799;SDS011;12897;50.812;4.430;2024-01-30T13:37:12;3.33;;;1.22;;
24799;SDS011;12897;50.812;4.430;2024-01-30T13:39:39;3.42;;;0.80;;
24799;SDS011;12897;50.812;4.430;2024-01-30T13:42:07;2.20;;;0.90;;
24799;SDS011;12897;50.812;4.430;2024-01-30T13:44:35;3.85;;;0.85;;
24799;SDS011;12897;50.812;4.430;2024-01-30T13:47:02;2.90;;;0.85;;
24799;SDS011;12897;50.812;4.430;2024-01-30T13:49:30;2.60;;;0.95;;
24799;SDS011;12897;50.812;4.430;2024-01-30T13:51:58;1.30;;;0.70;;
24799;SDS011;12897;50.812;4.430;2024-01-30T13:54:25;4.55;;;0.98;;
24799;SDS011;12897;50.812;4.430;2024-01-30T13:56:53;5.55;;;1.00;;
24799;SDS011;12897;50.812;4.430;2024-01-30T13:59:21;5.08;;;1.00;;
24799;SDS011;12897;50.812;4.430;2024-01-30T14:01:50;3.03;;;1.00;;
24799;SDS011;12897;50.812;4.430;2024-01-30T14:04:18;1.60;;;0.95;;
24799;SDS011;12897;50.812;4.430;2024-01-30T14:06:45;4.62;;;1.07;;
24799;SDS011;12897;50.812;4.430;2024-01-30T14:09:13;6.67;;;1.10;;
24799;SDS011;12897;50.812;4.430;2024-01-30T14:11:41;7.90;;;1.10;;
24799;SDS011;12897;50.812;4.430;2024-01-30T14:14:09;2.65;;;1.22;;
24799;SDS011;12897;50.812;4.430;2024-01-30T14:16:36;2.65;;;0.80;;
24799;SDS011;12897;50.812;4.430;2024-01-30T14:19:04;2.15;;;1.05;;
24799;SDS011;12897;50.812;4.430;2024-01-30T14:21:32;3.12;;;0.85;;
24799;SDS011;12897;50.812;4.430;2024-01-30T14:23:59;4.37;;;1.07;;
24799;SDS011;12897;50.812;4.430;2024-01-30T14:26:27;3.37;;;1.00;;
24799;SDS011;12897;50.812;4.430;2024-01-30T14:28:55;2.65;;;0.80;;
24799;SDS011;12897;50.812;4.430;2024-01-30T14:31:22;3.52;;;0.75;;
24799;SDS011;12897;50.812;4.430;2024-01-30T14:33:50;4.55;;;1.02;;
24799;SDS011;12897;50.812;4.430;2024-01-30T14:36:17;3.70;;;1.00;;
24799;SDS011;12897;50.812;4.430;2024-01-30T14:38:46;3.90;;;0.95;;
24799;SDS011;12897;50.812;4.430;2024-01-30T14:41:14;5.47;;;1.02;;
24799;SDS011;12897;50.812;4.430;2024-01-30T14:43:41;4.95;;;0.90;;
24799;SDS011;12897;50.812;4.430;2024-01-30T14:46:09;4.10;;;1.05;;
24799;SDS011;12897;50.812;4.430;2024-01-30T14:48:37;1.70;;;1.42;;
24799;SDS011;12897;50.812;4.430;2024-01-30T14:51:06;4.55;;;1.47;;
24799;SDS011;12897;50.812;4.430;2024-01-30T14:53:33;3.47;;;0.90;;
24799;SDS011;12897;50.812;4.430;2024-01-30T14:56:01;4.95;;;1.60;;
24799;SDS011;12897;50.812;4.430;2024-01-30T14:58:29;1.45;;;0.80;;
24799;SDS011;12897;50.812;4.430;2024-01-30T15:00:56;2.58;;;0.98;;
24799;SDS011;12897;50.812;4.430;2024-01-30T15:03:24;2.35;;;1.17;;
24799;SDS011;12897;50.812;4.430;2024-01-30T15:05:53;2.52;;;1.20;;
24799;SDS011;12897;50.812;4.430;2024-01-30T15:08:21;2.65;;;0.98;;
24799;SDS011;12897;50.812;4.430;2024-01-30T15:10:49;3.35;;;0.90;;
24799;SDS011;12897;50.812;4.430;2024-01-30T15:13:17;2.75;;;1.10;;
24799;SDS011;12897;50.812;4.430;2024-01-30T15:15:45;6.65;;;1.52;;
24799;SDS011;12897;50.812;4.430;2024-01-30T15:18:12;4.05;;;1.10;;
24799;SDS011;12897;50.812;4.430;2024-01-30T15:20:40;4.92;;;1.22;;
24799;SDS011;12897;50.812;4.430;2024-01-30T15:23:08;4.60;;;1.32;;
24799;SDS011;12897;50.812;4.430;2024-01-30T15:25:35;4.45;;;1.00;;
24799;SDS011;12897;50.812;4.430;2024-01-30T15:28:03;1.30;;;0.98;;
24799;SDS011;12897;50.812;4.430;2024-01-30T15:30:30;2.92;;;1.15;;